Time;durP1;ratioP1;P1;durP2;ratioP2;P2;SDS_P1;SDS_P2;PMS_P1;PMS_P2;Temp;Humidity;BMP_temperature;BMP_pressure;BME280_temperature;BME280_humidity;BME280_pressure;Samples;Min_cycle;Max_cycle;Signal;HPM_P1;HPM_P2
2021/10/18 00:01:17;;;;;;;19.90;12.65;;;12.40;1.00;;;;;;5093193;28;20278;-76
2021/10/18 00:03:44;;;;;;;14.20;11.85;;;12.40;1.00;;;;;;5093065;28;20202;-75
2021/10/18 00:06:11;;;;;;;13.55;12.10;;;12.30;1.00;;;;;;5093087;28;20286;-75
2021/10/18 00:08:38;;;;;;;14.23;11.85;;;12.30;1.00;;;;;;5093341;28;20214;-75
2021/10/18 00:11:05;;;;;;;15.32;12.77;;;12.30;1.00;;;;;;5093679;28;20209;-75
2021/10/18 00:13:32;;;;;;;14.60;12.13;;;12.30;1.00;;;;;;5092954;28;20322;-80
2021/10/18 00:16:01;;;;;;;13.93;11.35;;;12.30;1.00;;;;;;5093282;28;20267;-75
2021/10/18 00:18:28;;;;;;;13.80;12.40;;;12.30;1.00;;;;;;5093030;28;20290;-75
2021/10/18 00:20:55;;;;;;;13.18;11.13;;;12.20;1.00;;;;;;5087975;28;20202;-75
2021/10/18 00:23:22;;;;;;;17.27;12.35;;;12.20;1.00;;;;;;5083486;28;20210;-75
2021/10/18 00:25:50;;;;;;;15.48;12.27;;;12.20;1.00;;;;;;5092988;28;20282;-75
2021/10/18 00:28:17;;;;;;;15.70;12.95;;;12.10;1.00;;;;;;5082848;28;20686;-75
2021/10/18 00:30:44;;;;;;;15.93;11.55;;;12.10;1.00;;;;;;5088125;28;20209;-76
2021/10/18 00:33:12;;;;;;;13.05;11.20;;;12.10;1.00;;;;;;5092922;28;20669;-76
2021/10/18 00:35:39;;;;;;;15.07;11.82;;;12.10;1.00;;;;;;5092651;28;20254;-75
2021/10/18 00:38:06;;;;;;;14.10;10.88;;;12.10;1.00;;;;;;5092747;28;20209;-75
2021/10/18 00:40:34;;;;;;;13.15;11.80;;;12.00;1.00;;;;;;5092317;28;20229;-75
2021/10/18 00:43:01;;;;;;;12.70;10.73;;;12.00;1.00;;;;;;5091743;28;20205;-75
2021/10/18 00:45:28;;;;;;;18.55;13.05;;;12.00;1.00;;;;;;5079198;28;20287;-76
2021/10/18 00:47:55;;;;;;;12.60;11.20;;;12.00;1.00;;;;;;5092880;28;20279;-76
2021/10/18 00:50:23;;;;;;;14.02;10.88;;;12.00;1.00;;;;;;5091928;28;20197;-76
2021/10/18 00:52:51;;;;;;;12.27;11.00;;;12.00;1.00;;;;;;5092315;28;20737;-76
2021/10/18 00:55:18;;;;;;;12.10;9.68;;;12.00;1.00;;;;;;5091623;28;20213;-77
2021/10/18 00:57:46;;;;;;;14.23;10.75;;;11.90;1.00;;;;;;5092676;28;20632;-76
2021/10/18 01:00:14;;;;;;;15.13;11.23;;;11.90;1.00;;;;;;5091964;28;20205;-76
2021/10/18 01:02:41;;;;;;;14.10;11.60;;;11.90;1.00;;;;;;5092527;28;20258;-76
2021/10/18 01:05:09;;;;;;;14.18;10.20;;;11.80;1.00;;;;;;5092121;28;20704;-77
2021/10/18 01:07:37;;;;;;;14.55;11.77;;;11.80;1.00;;;;;;5092214;28;20201;-75
2021/10/18 01:10:05;;;;;;;13.60;10.57;;;11.80;1.00;;;;;;5092310;28;20205;-74
2021/10/18 01:12:32;;;;;;;12.85;11.55;;;11.90;1.00;;;;;;5091616;28;20206;-74
2021/10/18 01:14:59;;;;;;;14.30;11.63;;;11.90;1.00;;;;;;5091964;28;20692;-75
2021/10/18 01:17:27;;;;;;;14.55;12.02;;;11.90;1.00;;;;;;5083387;28;20202;-74
2021/10/18 01:19:54;;;;;;;14.57;11.50;;;11.80;1.00;;;;;;5082039;28;20206;-75
2021/10/18 01:22:23;;;;;;;15.50;11.73;;;11.70;1.00;;;;;;5091292;28;20205;-75
2021/10/18 01:24:50;;;;;;;14.13;12.63;;;11.60;1.00;;;;;;5080551;28;20681;-75
2021/10/18 01:27:17;;;;;;;13.95;12.20;;;11.50;1.00;;;;;;5091400;28;20270;-74
2021/10/18 01:29:44;;;;;;;13.98;12.27;;;11.50;1.00;;;;;;5091919;28;20206;-74
2021/10/18 01:32:12;;;;;;;12.40;11.20;;;11.50;1.00;;;;;;5087603;28;20259;-76
2021/10/18 01:34:39;;;;;;;13.33;11.30;;;11.50;1.00;;;;;;5073582;28;20722;-75
2021/10/18 01:37:06;;;;;;;13.73;11.15;;;11.50;1.00;;;;;;5079384;28;20309;-75
2021/10/18 01:39:34;;;;;;;12.68;11.30;;;11.40;1.00;;;;;;5088977;28;20216;-75
2021/10/18 01:42:02;;;;;;;12.17;10.90;;;11.40;1.00;;;;;;5090074;28;20205;-75
2021/10/18 01:44:29;;;;;;;15.68;13.85;;;11.40;1.00;;;;;;5088803;28;20214;-75
2021/10/18 01:46:56;;;;;;;16.20;14.07;;;11.40;1.00;;;;;;5075735;28;20221;-76
2021/10/18 01:49:23;;;;;;;15.82;13.77;;;11.40;1.00;;;;;;5088764;28;20235;-75
2021/10/18 01:51:50;;;;;;;14.82;12.43;;;11.40;1.00;;;;;;5085472;28;20209;-75
2021/10/18 01:54:17;;;;;;;15.45;12.55;;;11.50;1.00;;;;;;5087258;28;20663;-75
2021/10/18 01:56:46;;;;;;;15.00;12.18;;;11.40;1.00;;;;;;5083832;28;20206;-75
2021/10/18 01:59:13;;;;;;;12.95;11.60;;;11.40;1.00;;;;;;5086879;28;20205;-77
2021/10/18 02:01:40;;;;;;;13.87;12.20;;;11.30;1.00;;;;;;5081933;28;20206;-75
2021/10/18 02:04:07;;;;;;;13.55;11.23;;;11.30;1.00;;;;;;5086510;28;20206;-76
2021/10/18 02:06:34;;;;;;;14.77;10.93;;;11.30;1.00;;;;;;5081570;28;20225;-76
2021/10/18 02:09:01;;;;;;;13.03;10.27;;;11.30;1.00;;;;;;5083695;28;20204;-77
2021/10/18 02:11:28;;;;;;;12.15;10.38;;;11.20;1.00;;;;;;5078199;28;20606;-76
2021/10/18 02:13:56;;;;;;;12.80;10.07;;;11.10;1.00;;;;;;5078537;28;20209;-76
2021/10/18 02:16:24;;;;;;;15.07;11.83;;;11.20;1.00;;;;;;5080605;28;20665;-75
2021/10/18 02:18:51;;;;;;;14.17;11.10;;;11.20;1.00;;;;;;5078664;28;20670;-76
2021/10/18 02:21:18;;;;;;;12.13;10.55;;;11.20;1.00;;;;;;5080652;28;20251;-77
2021/10/18 02:23:46;;;;;;;11.23;10.02;;;11.10;1.00;;;;;;5075213;28;20201;-75
2021/10/18 02:26:13;;;;;;;11.67;10.40;;;11.20;1.00;;;;;;5067992;28;20236;-75
2021/10/18 02:28:40;;;;;;;14.57;11.67;;;11.20;1.00;;;;;;5070507;28;20206;-76
2021/10/18 02:31:08;;;;;;;11.33;9.93;;;11.20;1.00;;;;;;5070559;28;20248;-76
2021/10/18 02:33:35;;;;;;;15.77;11.50;;;11.20;1.00;;;;;;5063923;28;20214;-77
2021/10/18 02:36:03;;;;;;;13.00;10.53;;;11.10;1.00;;;;;;5070198;28;20266;-75
2021/10/18 02:38:30;;;;;;;11.38;10.18;;;11.20;1.00;;;;;;5069723;28;20213;-74
2021/10/18 02:40:57;;;;;;;11.50;9.43;;;11.10;1.00;;;;;;5070016;28;20210;-75
2021/10/18 02:43:24;;;;;;;10.37;9.27;;;11.10;1.00;;;;;;5070136;28;20209;-76
2021/10/18 02:45:51;;;;;;;11.40;10.17;;;11.10;1.00;;;;;;5069531;28;20262;-76
2021/10/18 02:48:19;;;;;;;10.83;9.37;;;11.00;1.00;;;;;;5070157;28;20206;-75
2021/10/18 02:50:46;;;;;;;10.93;9.73;;;11.10;1.00;;;;;;5069996;28;20263;-74
2021/10/18 02:53:13;;;;;;;11.32;9.40;;;11.20;1.00;;;;;;5070032;28;20203;-74
2021/10/18 02:55:41;;;;;;;11.85;10.18;;;11.10;1.00;;;;;;5070026;28;20264;-75
2021/10/18 02:58:11;;;;;;;10.90;9.73;;;11.10;1.00;;;;;;5070257;28;20211;-75
2021/10/18 03:00:40;;;;;;;10.73;9.37;;;11.10;1.00;;;;;;5070585;28;20307;-77
2021/10/18 03:03:07;;;;;;;13.77;10.93;;;11.10;1.00;;;;;;5070132;28;20230;-77
2021/10/18 03:05:36;;;;;;;10.18;9.07;;;11.10;1.00;;;;;;5070541;28;20230;-79
2021/10/18 03:08:03;;;;;;;11.57;9.57;;;11.00;1.00;;;;;;5074043;28;20247;-77
2021/10/18 03:10:31;;;;;;;11.47;9.27;;;10.80;1.00;;;;;;5073985;28;20560;-76
2021/10/18 03:12:58;;;;;;;10.67;9.57;;;10.70;1.00;;;;;;5073841;28;20209;-76
2021/10/18 03:15:25;;;;;;;11.52;10.05;;;10.60;1.00;;;;;;5073657;28;20206;-75
2021/10/18 03:17:52;;;;;;;10.10;8.70;;;10.60;1.00;;;;;;5073838;28;20251;-76
2021/10/18 03:20:19;;;;;;;13.30;9.47;;;10.60;1.00;;;;;;5073553;28;20210;-76
2021/10/18 03:22:47;;;;;;;11.93;9.27;;;10.70;1.00;;;;;;5073765;28;20264;-76
2021/10/18 03:25:14;;;;;;;12.80;10.17;;;10.70;1.00;;;;;;5072547;28;20206;-76
2021/10/18 03:27:41;;;;;;;13.07;10.43;;;10.70;1.00;;;;;;5073907;28;20298;-75
2021/10/18 03:30:09;;;;;;;12.53;10.43;;;10.90;1.00;;;;;;5073463;28;20206;-75
2021/10/18 03:32:36;;;;;;;11.40;9.93;;;11.00;1.00;;;;;;5073356;28;20259;-75
2021/10/18 03:35:03;;;;;;;12.10;8.83;;;11.20;1.00;;;;;;5073608;28;20202;-75
2021/10/18 03:37:30;;;;;;;12.68;10.23;;;11.30;1.00;;;;;;5073101;28;20214;-77
2021/10/18 03:39:59;;;;;;;12.15;10.05;;;11.40;1.00;;;;;;5073386;28;20240;-76
2021/10/18 03:42:27;;;;;;;12.60;11.30;;;11.50;1.00;;;;;;5073227;28;20202;-75
2021/10/18 03:44:54;;;;;;;12.23;10.63;;;11.60;1.00;;;;;;5073368;28;20263;-74
2021/10/18 03:47:21;;;;;;;13.07;11.33;;;11.70;1.00;;;;;;5072371;28;20241;-75
2021/10/18 03:49:48;;;;;;;13.48;11.32;;;11.70;1.00;;;;;;5073308;28;20267;-75
2021/10/18 03:52:17;;;;;;;14.10;11.23;;;11.80;1.00;;;;;;5072964;28;20202;-75
2021/10/18 03:54:44;;;;;;;11.43;10.10;;;11.80;1.00;;;;;;5073595;28;20248;-75
2021/10/18 03:57:13;;;;;;;14.27;10.23;;;11.80;1.00;;;;;;5073090;28;20620;-75
2021/10/18 03:59:40;;;;;;;12.70;11.20;;;11.90;1.00;;;;;;5073459;28;20295;-75
2021/10/18 04:02:07;;;;;;;10.87;9.87;;;12.00;1.00;;;;;;5073523;28;20240;-75
2021/10/18 04:04:34;;;;;;;12.48;10.98;;;11.90;1.00;;;;;;5073190;28;20197;-75
2021/10/18 04:07:01;;;;;;;12.65;10.82;;;11.90;1.00;;;;;;5073080;28;20230;-75
2021/10/18 04:09:28;;;;;;;14.63;12.83;;;11.90;1.00;;;;;;5072683;28;20205;-75
2021/10/18 04:11:55;;;;;;;14.98;13.20;;;12.00;1.00;;;;;;5073118;28;20202;-75
2021/10/18 04:14:23;;;;;;;14.00;12.13;;;12.00;1.00;;;;;;5072545;28;20281;-75
2021/10/18 04:16:50;;;;;;;16.98;13.15;;;12.10;1.00;;;;;;5072865;28;20232;-75
2021/10/18 04:19:17;;;;;;;15.82;13.13;;;11.90;1.00;;;;;;5071977;28;20214;-75
2021/10/18 04:21:44;;;;;;;14.52;12.85;;;12.00;1.00;;;;;;5072779;28;20255;-75
2021/10/18 04:24:11;;;;;;;16.05;13.45;;;12.00;1.00;;;;;;5073043;28;20259;-75
2021/10/18 04:26:38;;;;;;;13.98;11.95;;;11.90;1.00;;;;;;5072691;28;20642;-75
2021/10/18 04:29:06;;;;;;;14.68;12.75;;;12.00;1.00;;;;;;5073187;28;20210;-75
2021/10/18 04:31:34;;;;;;;13.63;12.00;;;12.00;1.00;;;;;;5072260;28;20210;-75
2021/10/18 04:34:01;;;;;;;16.38;13.38;;;12.10;1.00;;;;;;5072480;28;20256;-75
2021/10/18 04:36:29;;;;;;;22.80;15.00;;;12.20;1.00;;;;;;5072066;28;20214;-76
2021/10/18 04:38:57;;;;;;;16.17;12.75;;;12.00;1.00;;;;;;5072476;28;20232;-76
2021/10/18 04:41:24;;;;;;;18.92;12.88;;;12.10;1.00;;;;;;5072206;28;20206;-75
2021/10/18 04:43:51;;;;;;;20.67;13.77;;;11.90;1.00;;;;;;5072371;28;20728;-76
2021/10/18 04:46:18;;;;;;;16.67;11.82;;;12.00;1.00;;;;;;5071863;28;20225;-75
2021/10/18 04:48:47;;;;;;;19.77;13.98;;;12.00;1.00;;;;;;5065807;28;20791;-75
2021/10/18 04:51:14;;;;;;;23.92;14.38;;;11.90;1.00;;;;;;5066229;28;20246;-75
2021/10/18 04:53:41;;;;;;;24.83;13.68;;;11.70;1.00;;;;;;5071933;28;20265;-76
2021/10/18 04:56:08;;;;;;;26.08;14.98;;;11.70;1.00;;;;;;5071796;28;20218;-75
2021/10/18 04:58:34;;;;;;;27.93;13.37;;;11.80;1.00;;;;;;5071871;28;20206;-74
2021/10/18 05:01:01;;;;;;;24.63;16.55;;;11.80;1.00;;;;;;5072097;28;20202;-75
2021/10/18 05:03:28;;;;;;;27.10;14.77;;;11.80;1.00;;;;;;5071558;28;20203;-75
2021/10/18 05:05:57;;;;;;;27.05;15.20;;;11.90;1.00;;;;;;5071816;28;20210;-75
2021/10/18 05:08:24;;;;;;;26.75;14.73;;;11.70;1.00;;;;;;5071469;28;20279;-75
2021/10/18 05:10:52;;;;;;;25.88;16.52;;;11.70;1.00;;;;;;5071482;28;20614;-75
2021/10/18 05:13:19;;;;;;;28.50;15.82;;;11.60;1.00;;;;;;5071350;28;20206;-75
2021/10/18 05:15:49;;;;;;;25.08;15.43;;;11.80;1.00;;;;;;5071744;28;20242;-74
2021/10/18 05:18:16;;;;;;;28.13;15.20;;;11.80;1.00;;;;;;5071580;28;20202;-75
2021/10/18 05:20:42;;;;;;;29.55;15.18;;;11.90;1.00;;;;;;5071872;28;20209;-74
2021/10/18 05:23:15;;;;;;;25.23;15.52;;;11.70;1.00;;;;;;5071796;28;20629;-74
2021/10/18 05:25:43;;;;;;;30.27;15.02;;;11.60;1.00;;;;;;5071273;28;20312;-74
2021/10/18 05:28:10;;;;;;;26.63;16.48;;;11.60;1.00;;;;;;5070874;28;20291;-75
2021/10/18 05:30:37;;;;;;;27.38;13.77;;;11.70;1.00;;;;;;5070822;28;20207;-75
2021/10/18 05:33:05;;;;;;;28.73;15.70;;;11.80;1.00;;;;;;5071413;28;20727;-75
2021/10/18 05:35:32;;;;;;;26.92;14.60;;;11.80;1.00;;;;;;5070623;28;20663;-75
2021/10/18 05:38:00;;;;;;;27.98;15.25;;;11.80;1.00;;;;;;5071116;28;20295;-76
2021/10/18 05:40:30;;;;;;;26.15;15.10;;;11.80;1.00;;;;;;5070197;28;20198;-76
2021/10/18 05:42:57;;;;;;;30.48;15.07;;;11.80;1.00;;;;;;5071179;28;20255;-75
2021/10/18 05:45:24;;;;;;;23.63;15.98;;;11.80;1.00;;;;;;5070703;28;20260;-75
2021/10/18 05:47:56;;;;;;;36.58;16.27;;;11.90;1.00;;;;;;5071066;28;20299;-75
2021/10/18 05:50:25;;;;;;;31.83;16.02;;;11.90;1.00;;;;;;5070597;28;20228;-75
2021/10/18 05:52:52;;;;;;;25.10;16.83;;;11.90;1.00;;;;;;5071190;28;20234;-74
2021/10/18 05:55:19;;;;;;;30.15;17.58;;;12.00;1.00;;;;;;5070076;28;20214;-74
2021/10/18 05:57:53;;;;;;;33.25;16.25;;;12.00;1.00;;;;;;5070921;28;20283;-76
2021/10/18 06:00:21;;;;;;;34.70;15.40;;;12.00;1.00;;;;;;5070510;28;20202;-74
2021/10/18 06:02:49;;;;;;;31.90;16.73;;;11.90;1.00;;;;;;5070554;28;20207;-74
2021/10/18 06:05:16;;;;;;;34.97;16.85;;;12.00;1.00;;;;;;5069536;28;20205;-75
2021/10/18 06:07:44;;;;;;;31.50;17.48;;;12.00;1.00;;;;;;5055184;28;20321;-75
2021/10/18 06:10:12;;;;;;;28.88;16.75;;;11.90;1.00;;;;;;5069337;28;20625;-75
2021/10/18 06:12:40;;;;;;;30.42;14.60;;;12.10;1.00;;;;;;5068979;28;20206;-75
2021/10/18 06:15:10;;;;;;;34.75;16.00;;;12.10;1.00;;;;;;5070604;28;20214;-75
2021/10/18 06:17:37;;;;;;;24.70;16.35;;;12.10;1.00;;;;;;5071112;28;20220;-75
2021/10/18 06:20:06;;;;;;;30.10;17.10;;;12.10;1.00;;;;;;5070825;28;20225;-75
2021/10/18 06:22:33;;;;;;;28.60;17.40;;;12.10;1.00;;;;;;5070027;28;20282;-75
2021/10/18 06:25:00;;;;;;;28.88;17.35;;;12.10;1.00;;;;;;5070513;28;20210;-75
2021/10/18 06:27:27;;;;;;;31.55;18.85;;;12.30;1.00;;;;;;5070264;28;20233;-74
2021/10/18 06:29:53;;;;;;;29.23;15.80;;;12.30;1.00;;;;;;5070432;28;20210;-74
2021/10/18 06:32:22;;;;;;;38.45;17.65;;;12.40;1.00;;;;;;5069892;28;20248;-78
2021/10/18 06:34:49;;;;;;;32.85;15.93;;;12.30;1.00;;;;;;5069895;28;20627;-75
2021/10/18 06:37:16;;;;;;;30.70;17.13;;;12.30;1.00;;;;;;5069621;28;20210;-74
2021/10/18 06:39:43;;;;;;;28.45;16.33;;;12.40;1.00;;;;;;5070756;28;20210;-78
2021/10/18 06:42:10;;;;;;;30.80;17.65;;;12.40;1.00;;;;;;5067723;28;20198;-78
2021/10/18 06:44:37;;;;;;;24.67;15.18;;;12.30;1.00;;;;;;5064516;28;20241;-77
2021/10/18 06:47:04;;;;;;;34.25;16.75;;;12.50;1.00;;;;;;5069610;28;20226;-77
2021/10/18 06:49:33;;;;;;;27.95;15.35;;;12.50;1.00;;;;;;5069756;28;20327;-80
2021/10/18 06:52:00;;;;;;;31.42;16.83;;;12.40;1.00;;;;;;5069889;28;20210;-77
2021/10/18 06:54:35;;;;;;;34.22;18.40;;;12.30;1.00;;;;;;5069604;28;20366;-77
2021/10/18 06:57:02;;;;;;;34.85;18.45;;;12.30;1.00;;;;;;5061528;28;20708;-73
2021/10/18 06:59:31;;;;;;;36.47;18.05;;;12.30;1.00;;;;;;5066441;28;20604;-73
2021/10/18 07:01:58;;;;;;;33.38;18.23;;;12.50;1.00;;;;;;5069707;28;20202;-77
2021/10/18 07:04:29;;;;;;;34.95;17.33;;;12.60;1.00;;;;;;5068818;28;20629;-76
2021/10/18 07:06:57;;;;;;;33.70;14.93;;;12.70;1.00;;;;;;5063464;28;20233;-78
2021/10/18 07:09:27;;;;;;;38.08;18.15;;;12.80;1.00;;;;;;5067519;28;20252;-75
2021/10/18 07:11:55;;;;;;;30.80;17.20;;;12.90;1.00;;;;;;5070032;28;20292;-76
2021/10/18 07:14:22;;;;;;;28.73;16.27;;;12.90;1.00;;;;;;5069223;28;20684;-75
2021/10/18 07:16:49;;;;;;;26.13;16.25;;;12.80;1.00;;;;;;5070166;28;20210;-76
2021/10/18 07:19:16;;;;;;;28.90;17.80;;;12.90;1.00;;;;;;5069843;28;20296;-77
2021/10/18 07:21:45;;;;;;;29.02;19.73;;;12.90;1.00;;;;;;5069779;28;20577;-76
2021/10/18 07:24:15;;;;;;;27.38;17.70;;;13.00;1.00;;;;;;5069373;28;20559;-74
2021/10/18 07:26:42;;;;;;;29.10;16.17;;;13.00;1.00;;;;;;5069890;28;20206;-76
2021/10/18 07:29:10;;;;;;;27.27;15.70;;;12.90;1.00;;;;;;5070033;28;20267;-71
2021/10/18 07:31:37;;;;;;;24.83;16.20;;;13.00;1.00;;;;;;5070202;28;20198;-75
2021/10/18 07:34:11;;;;;;;21.25;15.82;;;13.20;1.00;;;;;;5070220;28;20302;-74
2021/10/18 07:36:46;;;;;;;21.60;16.65;;;13.20;1.00;;;;;;5069626;28;20201;-75
2021/10/18 07:39:15;;;;;;;25.45;16.38;;;13.30;1.00;;;;;;5068760;28;20674;-72
2021/10/18 07:41:42;;;;;;;22.00;15.70;;;13.40;1.00;;;;;;5069719;28;20297;-75
2021/10/18 07:44:09;;;;;;;29.38;16.10;;;13.50;1.00;;;;;;5067263;28;20670;-73
2021/10/18 07:46:36;;;;;;;18.17;13.15;;;13.40;1.00;;;;;;5061401;28;20267;-73
2021/10/18 07:49:03;;;;;;;16.67;12.90;;;13.20;1.00;;;;;;5068970;28;20283;-74
2021/10/18 07:51:30;;;;;;;19.90;14.05;;;13.20;1.00;;;;;;5067489;28;20267;-75
2021/10/18 07:53:57;;;;;;;18.52;13.23;;;13.30;1.00;;;;;;5071295;28;20731;-71
2021/10/18 07:56:26;;;;;;;18.60;13.60;;;13.50;1.00;;;;;;5072332;28;20267;-75
2021/10/18 07:58:53;;;;;;;24.50;16.95;;;13.80;1.00;;;;;;5072864;28;20221;-76
2021/10/18 08:01:20;;;;;;;19.15;15.10;;;13.90;1.00;;;;;;5072934;28;20206;-76
2021/10/18 08:03:47;;;;;;;27.50;15.38;;;13.90;1.00;;;;;;5073065;28;20206;-77
2021/10/18 08:06:14;;;;;;;21.00;15.85;;;14.10;1.00;;;;;;5072349;28;20210;-73
2021/10/18 08:08:47;;;;;;;19.45;13.30;;;14.10;1.00;;;;;;5072821;28;20650;-72
2021/10/18 08:11:14;;;;;;;19.45;13.00;;;14.20;1.00;;;;;;5072473;28;20284;-75
2021/10/18 08:13:42;;;;;;;17.38;12.10;;;14.00;1.00;;;;;;5073164;28;20575;-74
2021/10/18 08:16:10;;;;;;;15.30;12.60;;;13.80;1.00;;;;;;5072923;28;20202;-73
2021/10/18 08:18:38;;;;;;;14.27;12.43;;;13.90;1.00;;;;;;5072863;28;20209;-77
2021/10/18 08:21:06;;;;;;;12.95;10.45;;;14.20;1.00;;;;;;5072936;28;20293;-72
2021/10/18 08:23:33;;;;;;;15.00;11.65;;;14.10;1.00;;;;;;5072681;28;20210;-76
2021/10/18 08:26:01;;;;;;;13.57;11.48;;;14.40;1.00;;;;;;5072606;28;20677;-76
2021/10/18 08:28:29;;;;;;;14.52;12.88;;;14.30;1.00;;;;;;5072050;28;20285;-74
2021/10/18 08:30:58;;;;;;;14.80;11.82;;;14.00;1.00;;;;;;5072739;28;20283;-75
2021/10/18 08:33:25;;;;;;;16.48;11.38;;;14.00;1.00;;;;;;5072015;28;20255;-76
2021/10/18 08:35:53;;;;;;;12.75;11.45;;;14.10;1.00;;;;;;5072763;28;20217;-76
2021/10/18 08:41:08;;;;;;;15.48;12.82;;;14.30;1.00;;;;;;5059830;28;20209;-72
2021/10/18 08:46:22;;;;;;;16.92;11.30;;;14.40;1.00;;;;;;5067238;28;20228;-75
2021/10/18 08:48:52;;;;;;;13.77;11.40;;;14.70;1.00;;;;;;5071252;28;20234;-75
2021/10/18 08:51:19;;;;;;;15.10;10.88;;;14.70;1.00;;;;;;5066259;28;20757;-76
2021/10/18 08:53:47;;;;;;;12.52;10.95;;;14.70;1.00;;;;;;5072523;28;20202;-74
2021/10/18 08:56:14;;;;;;;13.38;10.75;;;14.70;1.00;;;;;;5063090;28;20571;-73
2021/10/18 08:58:41;;;;;;;16.67;11.00;;;15.00;1.00;;;;;;5069799;28;20214;-78
2021/10/18 09:01:08;;;;;;;15.18;10.73;;;15.40;1.00;;;;;;5072103;28;20260;-76
2021/10/18 09:03:37;;;;;;;13.07;11.50;;;15.60;1.00;;;;;;5074434;28;20198;-75
2021/10/18 09:06:13;;;;;;;14.50;11.20;;;15.70;1.00;;;;;;5071458;28;20214;-72
2021/10/18 09:08:42;;;;;;;12.57;10.35;;;15.60;1.00;;;;;;5071196;28;20283;-76
2021/10/18 09:11:12;;;;;;;12.63;9.63;;;15.50;1.00;;;;;;5071348;28;20210;-76
2021/10/18 09:13:44;;;;;;;12.52;10.07;;;15.30;1.00;;;;;;5074852;28;20631;-71
2021/10/18 09:16:12;;;;;;;10.63;9.52;;;15.30;1.00;;;;;;5074710;28;20252;-74
2021/10/18 09:18:41;;;;;;;11.20;10.05;;;15.20;1.00;;;;;;5071632;28;20208;-72
2021/10/18 09:21:08;;;;;;;12.90;10.00;;;15.30;1.00;;;;;;5071124;28;20293;-76
2021/10/18 09:23:38;;;;;;;11.32;9.43;;;15.60;1.00;;;;;;5070870;28;20252;-76
2021/10/18 09:26:07;;;;;;;14.73;10.20;;;15.80;1.00;;;;;;5071818;28;20632;-76
2021/10/18 09:28:35;;;;;;;10.88;7.97;;;16.10;1.00;;;;;;5056598;28;20238;-76
2021/10/18 09:31:02;;;;;;;9.82;8.85;;;16.30;1.00;;;;;;5071146;28;20308;-77
2021/10/18 09:33:31;;;;;;;9.75;8.38;;;16.40;1.00;;;;;;5070158;28;20210;-74
2021/10/18 09:36:02;;;;;;;10.57;9.35;;;16.50;1.00;;;;;;5070611;28;20210;-75
2021/10/18 09:38:29;;;;;;;9.40;8.45;;;16.30;1.00;;;;;;5070489;28;20304;-77
2021/10/18 09:40:59;;;;;;;10.73;8.27;;;16.80;1.00;;;;;;5070872;28;20263;-77
2021/10/18 09:43:33;;;;;;;11.55;7.63;;;17.00;1.00;;;;;;5070536;28;20209;-76
2021/10/18 09:46:12;;;;;;;11.40;8.50;;;17.00;1.00;;;;;;5070393;28;20583;-76
2021/10/18 10:53:45;;;;;;;7.45;6.20;;;18.60;1.00;;;;;;5070519;28;20655;-88
2021/10/18 10:56:24;;;;;;;5.72;5.18;;;18.60;1.00;;;;;;5070668;28;20281;-82
2021/10/18 10:59:12;;;;;;;7.20;5.85;;;18.70;1.00;;;;;;5071029;28;20202;-88
2021/10/18 11:01:48;;;;;;;6.32;5.70;;;18.90;1.00;;;;;;5064433;28;20627;-79
2021/10/18 11:04:54;;;;;;;7.20;5.75;;;19.00;1.00;;;;;;5070888;28;20259;-88
2021/10/18 11:07:38;;;;;;;5.80;5.20;;;19.10;1.00;;;;;;5070601;28;20202;-87
2021/10/18 11:10:07;;;;;;;5.80;5.05;;;19.20;1.00;;;;;;5063548;28;20206;-86
2021/10/18 11:12:36;;;;;;;5.57;5.07;;;19.30;1.00;;;;;;5063922;28;20678;-88
2021/10/18 11:15:08;;;;;;;7.18;5.53;;;19.50;1.00;;;;;;5062824;28;20210;-85
2021/10/18 11:17:36;;;;;;;5.25;4.60;;;19.60;1.00;;;;;;5068921;28;20206;-82
2021/10/18 11:20:06;;;;;;;6.35;5.47;;;19.70;1.00;;;;;;5065483;28;20255;-88
2021/10/18 11:22:36;;;;;;;7.72;5.25;;;19.60;1.00;;;;;;5070316;28;20251;-78
2021/10/18 11:25:06;;;;;;;6.32;5.72;;;19.60;1.00;;;;;;5070064;28;20248;-86
2021/10/18 11:27:35;;;;;;;5.70;5.05;;;19.50;1.00;;;;;;5069832;28;20627;-77
2021/10/18 11:30:07;;;;;;;8.27;5.13;;;19.70;1.00;;;;;;5074126;28;20202;-84
2021/10/18 11:32:35;;;;;;;5.03;4.53;;;19.70;1.00;;;;;;5074045;28;20202;-84
2021/10/18 11:35:13;;;;;;;6.07;5.38;;;19.90;1.00;;;;;;5074462;28;20210;-86
2021/10/18 11:37:51;;;;;;;6.50;4.93;;;20.00;1.00;;;;;;5074076;28;20304;-80
2021/10/18 11:40:21;;;;;;;6.85;5.32;;;20.10;1.00;;;;;;5073543;28;20706;-85
2021/10/18 11:42:49;;;;;;;6.47;4.35;;;20.10;1.00;;;;;;5074499;28;20206;-82
2021/10/18 11:45:19;;;;;;;4.80;4.38;;;20.20;1.00;;;;;;5073872;28;20206;-83
2021/10/18 11:47:46;;;;;;;4.30;3.90;;;20.30;1.00;;;;;;5062014;28;20264;-83
2021/10/18 11:50:17;;;;;;;5.88;4.00;;;20.50;1.00;;;;;;5076610;28;20665;-83
2021/10/18 11:52:47;;;;;;;7.28;5.07;;;20.60;1.00;;;;;;5075693;28;20267;-83
2021/10/18 11:55:17;;;;;;;7.78;4.72;;;20.60;1.00;;;;;;5077042;28;20732;-85
2021/10/18 11:57:46;;;;;;;4.22;3.83;;;20.70;1.00;;;;;;5075878;28;20210;-82
2021/10/18 12:00:18;;;;;;;6.28;4.22;;;20.70;1.00;;;;;;5076427;28;20206;-84
2021/10/18 12:02:47;;;;;;;3.47;3.15;;;20.70;1.00;;;;;;5072994;28;20260;-85
2021/10/18 12:05:16;;;;;;;3.97;3.67;;;21.00;1.00;;;;;;5075065;28;20206;-82
2021/10/18 12:07:48;;;;;;;5.38;3.90;;;20.70;1.00;;;;;;5073819;28;20259;-84
2021/10/18 12:10:21;;;;;;;5.20;4.22;;;20.60;1.00;;;;;;5074477;28;20573;-86
2021/10/18 12:13:16;;;;;;;4.47;3.75;;;20.80;1.00;;;;;;5074415;28;20621;-83
2021/10/18 12:15:53;;;;;;;4.45;3.88;;;20.70;1.00;;;;;;5074860;28;20214;-85
2021/10/18 12:18:23;;;;;;;6.57;4.93;;;20.80;99.90;;;;;;5073733;28;20615;-80
2021/10/18 12:20:51;;;;;;;4.25;3.78;;;20.80;1.00;;;;;;5074251;28;20198;-83
2021/10/18 12:23:22;;;;;;;3.75;3.45;;;20.90;99.90;;;;;;5073032;28;20214;-86
2021/10/18 12:25:55;;;;;;;5.47;4.97;;;21.10;99.90;;;;;;5073434;28;20202;-83
2021/10/18 12:28:30;;;;;;;4.63;4.22;;;21.10;99.90;;;;;;5072779;28;20238;-85
2021/10/18 12:30:59;;;;;;;3.63;3.33;;;21.20;99.90;;;;;;5073313;28;20256;-82
2021/10/18 12:33:36;;;;;;;4.55;4.15;;;21.30;99.90;;;;;;5072366;28;20211;-76
2021/10/18 12:36:04;;;;;;;4.35;3.42;;;21.30;99.90;;;;;;5073579;28;20254;-87
2021/10/18 12:38:35;;;;;;;4.93;4.32;;;21.20;99.90;;;;;;5072050;28;20558;-84
2021/10/18 12:41:12;;;;;;;5.90;4.15;;;20.80;99.90;;;;;;5069358;28;20206;-84
2021/10/18 12:43:39;;;;;;;4.80;4.35;;;20.70;99.90;;;;;;5070175;28;20236;-77
2021/10/18 12:46:17;;;;;;;8.30;4.35;;;20.90;1.00;;;;;;5073632;28;20202;-83
2021/10/18 12:48:56;;;;;;;5.40;4.47;;;21.20;99.90;;;;;;5073245;28;20291;-86
2021/10/18 12:51:50;;;;;;;5.85;4.53;;;21.40;99.90;;;;;;5060424;28;20194;-83
2021/10/18 12:54:23;;;;;;;5.35;4.07;;;21.40;99.90;;;;;;5059305;28;20210;-85
2021/10/18 12:57:05;;;;;;;4.68;4.28;;;21.30;99.90;;;;;;5073461;28;20625;-86
2021/10/18 12:59:34;;;;;;;7.20;3.63;;;20.90;99.90;;;;;;5072410;28;20209;-81
2021/10/18 13:02:26;;;;;;;6.15;4.03;;;20.80;99.90;;;;;;5072868;28;20210;-87
2021/10/18 13:05:21;;;;;;;5.85;3.40;;;21.00;99.90;;;;;;5072949;28;20263;-86
2021/10/18 13:07:57;;;;;;;4.68;3.95;;;21.30;99.90;;;;;;5071813;28;20715;-87
2021/10/18 13:10:28;;;;;;;3.70;3.40;;;21.60;99.90;;;;;;5072498;28;20596;-87
2021/10/18 13:12:55;;;;;;;8.20;4.05;;;21.80;99.90;;;;;;5072512;28;20666;-87
2021/10/18 13:15:23;;;;;;;4.00;3.20;;;21.80;99.90;;;;;;5072626;28;20661;-87
2021/10/18 13:17:50;;;;;;;4.95;3.85;;;21.70;99.90;;;;;;5072061;28;20719;-82
2021/10/18 13:20:19;;;;;;;3.35;3.05;;;21.90;99.90;;;;;;5072447;28;20210;-81
2021/10/18 13:22:48;;;;;;;4.13;3.40;;;22.10;99.90;;;;;;5072059;28;20206;-84
2021/10/18 13:25:16;;;;;;;3.97;3.67;;;22.20;99.90;;;;;;5071859;28;20642;-82
2021/10/18 13:27:43;;;;;;;5.05;4.18;;;22.30;99.90;;;;;;5072307;28;20272;-86
2021/10/18 13:30:12;;;;;;;4.10;3.25;;;22.40;99.90;;;;;;5072074;28;20257;-84
2021/10/18 13:32:40;;;;;;;4.82;3.63;;;22.60;99.90;;;;;;5072366;28;20670;-85
2021/10/18 13:35:08;;;;;;;4.60;4.20;;;22.60;99.90;;;;;;5073533;28;20287;-82
2021/10/18 13:37:37;;;;;;;6.88;3.60;;;22.40;99.90;;;;;;5073905;28;20287;-77
2021/10/18 13:40:06;;;;;;;4.65;3.63;;;22.10;99.90;;;;;;5073761;28;20217;-76
2021/10/18 13:42:33;;;;;;;5.03;3.83;;;21.80;99.90;;;;;;5071442;28;20202;-86
2021/10/18 13:45:00;;;;;;;7.15;5.00;;;21.90;99.90;;;;;;5072152;28;20267;-76
2021/10/18 13:47:28;;;;;;;4.72;3.92;;;22.20;99.90;;;;;;5071147;28;20203;-83
2021/10/18 13:49:55;;;;;;;4.35;3.45;;;22.70;99.90;;;;;;5071168;28;20725;-78
2021/10/18 13:52:23;;;;;;;3.72;3.40;;;22.70;99.90;;;;;;5070795;28;20276;-86
2021/10/18 13:54:51;;;;;;;3.38;3.08;;;22.50;99.90;;;;;;5071782;28;20202;-79
2021/10/18 13:57:21;;;;;;;4.28;3.63;;;22.20;99.90;;;;;;5070860;28;20300;-75
2021/10/18 13:59:48;;;;;;;3.30;3.00;;;22.30;99.90;;;;;;5071298;28;20632;-82